Catàleg de serveis del Meteocat
Campanya meteocatpedra

Dades de l'estació automàtica el Masroig

?
?
Resum diari 21:30 TU
Dades diàries de l'estació meteorològica
Temperatura mitjana 9.2 °C
Temperatura màxima 14.0 °C 15:05 TU
Temperatura mínima 5.4 °C 21:59 TU
Humitat relativa mitjana 85%
Precipitació acumulada 7.1 mm
Ratxa màxima del vent (2 m) 20.2 km/h - 296º 16:44 TU

El tram horari està expressat en Temps Universal (TU). Cal sumar una hora en horari d'hivern i dues en horari d'estiu per passar a l'hora oficial.

el Masroig

Metadades estació meteorol´gica
Municipi El Masroig
Comarca Priorat
Altitud 141 m
Data alta 20.06.2000
Estat actual Operativa
Dades de període
Període
TU
TM
°C
TX
°C
TN
°C
HRM
%
PPT
mm
VVM (2 m)
km/h
DVM (2 m)
graus
VVX (2 m)
km/h
00:00 - 00:30 9.7 10.3 8.8 66 0.0 1.8 195 10.8
00:30 - 01:00 7.6 8.7 6.3 77 0.0 2.2 128 6.1
01:00 - 01:30 6.3 6.4 6.2 83 0.0 3.6 114 7.2
01:30 - 02:00 6.2 6.9 6.0 84 0.0 4.0 112 7.6
02:00 - 02:30 6.9 7.7 6.4 83 0.0 4.0 110 7.6
02:30 - 03:00 6.8 7.2 6.6 84 0.0 3.6 103 6.8
03:00 - 03:30 7.2 7.7 6.6 83 0.0 4.0 108 7.9
03:30 - 04:00 7.7 8.1 7.6 82 0.0 2.9 116 6.5
04:00 - 04:30 8.2 8.3 8.1 81 0.0 3.2 118 5.4
04:30 - 05:00 8.6 8.9 8.3 80 0.0 2.5 119 5.8
05:00 - 05:30 8.3 8.5 7.9 84 0.0 1.1 68 4.0
05:30 - 06:00 8.0 8.1 7.9 87 0.1 3.6 123 6.8
06:00 - 06:30 8.0 8.1 7.8 91 0.3 2.2 121 4.3
06:30 - 07:00 7.9 8.0 7.8 94 0.3 0.4 119 1.8
07:00 - 07:30 7.9 8.0 7.8 96 0.5 0.0 53 1.1
07:30 - 08:00 8.1 8.2 8.0 97 0.4 0.0 112 1.8
08:00 - 08:30 8.2 8.3 8.2 97 0.8 0.0 320 2.2
08:30 - 09:00 8.3 8.4 8.2 97 1.2 1.8 280 5.0
09:00 - 09:30 8.4 8.4 8.2 97 2.0 1.1 287 4.0
09:30 - 10:00 8.5 8.6 8.4 97 1.2 0.7 253 3.2
10:00 - 10:30 8.9 9.2 8.6 97 0.3 1.4 261 4.3
10:30 - 11:00 9.2 9.5 9.1 97 0.0 1.8 251 7.6
11:00 - 11:30 9.4 9.5 9.3 95 0.0 2.5 259 8.6
11:30 - 12:00 9.8 10.1 9.5 95 0.0 1.4 193 5.8
12:00 - 12:30 10.0 10.1 10.0 94 0.0 1.1 207 5.0
12:30 - 13:00 10.3 10.5 10.1 92 0.0 0.4 186 2.9
13:00 - 13:30 10.8 11.0 10.6 90 0.0 1.1 186 4.0
13:30 - 14:00 11.6 12.4 11.1 85 0.0 1.1 152 4.7
14:00 - 14:30 12.8 13.4 12.2 79 0.0 2.2 147 6.5
14:30 - 15:00 12.6 13.3 12.2 79 0.0 3.2 132 6.1
15:00 - 15:30 13.3 14.0 12.9 77 0.0 3.2 145 8.3
15:30 - 16:00 13.2 13.6 12.9 78 0.0 2.2 161 6.8
16:00 - 16:30 12.9 13.2 12.3 79 0.0 0.4 255 7.2
16:30 - 17:00 12.2 12.9 11.5 72 0.0 7.2 302 20.2
17:00 - 17:30 12.0 12.6 11.5 67 0.0 5.0 296 15.5
17:30 - 18:00 12.2 12.6 11.5 63 0.0 8.3 307 19.4
18:00 - 18:30 12.1 12.4 11.6 62 0.0 6.1 304 16.2
18:30 - 19:00 11.0 11.5 10.3 66 0.0 2.2 305 8.3
19:00 - 19:30 9.4 10.2 8.4 74 0.0 1.1 285 4.3
19:30 - 20:00 8.2 8.8 7.7 81 0.0 1.8 153 4.7
20:00 - 20:30 7.6 8.0 6.6 84 0.0 2.5 119 5.4
20:30 - 21:00 6.7 7.5 6.1 89 0.0 3.2 114 7.9
21:00 - 21:30 6.3 7.0 6.0 91 0.0 2.9 102 7.2
21:30 - 22:00 5.7 6.1 5.4 92 0.0 3.2 117 7.6

Les dades en taronja només han passat un control de qualitat automàtic. Resta pendent la seva validació definitiva.